Time;durP1;ratioP1;P1;durP2;ratioP2;P2;SDS_P1;SDS_P2;PMS_P1;PMS_P2;Temp;Humidity;BMP_temperature;BMP_pressure;BME280_temperature;BME280_humidity;BME280_pressure;Samples;Min_cycle;Max_cycle;Signal;HPM_P1;HPM_P2
2023/06/07 00:02:17;;;;;;;3.17;2.28;;;19.10;84.10;;;;;;5117044;28;20024;-76
2023/06/07 00:04:45;;;;;;;5.35;2.88;;;19.00;84.50;;;;;;5096731;28;20109;-77
2023/06/07 00:07:11;;;;;;;8.15;2.33;;;19.00;84.90;;;;;;5095122;28;20031;-76
2023/06/07 00:09:37;;;;;;;4.50;2.58;;;19.00;85.10;;;;;;5096743;28;20058;-76
2023/06/07 00:12:04;;;;;;;5.40;2.30;;;18.90;85.70;;;;;;5101663;28;20118;-75
2023/06/07 00:14:30;;;;;;;3.88;2.58;;;18.80;86.30;;;;;;5117351;28;20039;-76
2023/06/07 00:16:56;;;;;;;4.07;2.42;;;18.80;86.80;;;;;;5115977;28;20384;-76
2023/06/07 00:19:24;;;;;;;4.18;2.33;;;18.70;87.00;;;;;;5115553;28;20076;-76
2023/06/07 00:21:51;;;;;;;3.75;2.20;;;18.70;87.80;;;;;;5115507;28;20055;-77
2023/06/07 00:24:17;;;;;;;2.33;1.98;;;18.60;88.00;;;;;;5115064;28;20036;-77
2023/06/07 00:26:43;;;;;;;4.78;2.45;;;18.60;88.20;;;;;;5115686;28;20058;-76
2023/06/07 00:29:10;;;;;;;3.33;2.60;;;18.60;88.50;;;;;;5114948;28;20521;-77
2023/06/07 00:31:36;;;;;;;4.22;2.50;;;18.60;89.30;;;;;;5110693;28;20031;-77
2023/06/07 00:34:02;;;;;;;3.10;2.40;;;18.50;89.80;;;;;;5105260;28;20028;-76
2023/06/07 00:36:28;;;;;;;3.53;2.10;;;18.50;90.00;;;;;;5095990;28;20032;-77
2023/06/07 00:38:54;;;;;;;4.43;2.28;;;18.50;90.10;;;;;;5097364;28;20024;-78
2023/06/07 00:41:20;;;;;;;3.15;2.13;;;18.50;90.20;;;;;;5116122;28;20048;-77
2023/06/07 00:43:47;;;;;;;3.63;2.33;;;18.40;90.40;;;;;;5116598;28;20032;-78
2023/06/07 00:46:19;;;;;;;3.00;2.20;;;18.40;90.60;;;;;;5116384;28;20028;-78
2023/06/07 00:48:45;;;;;;;2.47;1.98;;;18.30;90.80;;;;;;5096279;28;20479;-78
2023/06/07 00:51:11;;;;;;;2.92;2.00;;;18.30;90.90;;;;;;5094673;28;20028;-78
2023/06/07 00:53:37;;;;;;;4.03;2.80;;;18.30;91.10;;;;;;5095249;28;20035;-78
2023/06/07 00:56:05;;;;;;;4.55;2.40;;;18.30;91.30;;;;;;5094607;28;20111;-77
2023/06/07 00:58:32;;;;;;;2.80;2.30;;;18.30;91.40;;;;;;5096145;28;20047;-78
2023/06/07 01:01:00;;;;;;;4.78;2.10;;;18.30;91.60;;;;;;5093859;28;20130;-78
2023/06/07 01:03:27;;;;;;;5.97;2.65;;;18.30;91.60;;;;;;5095021;28;20036;-78
2023/06/07 01:05:53;;;;;;;2.75;2.00;;;18.20;91.90;;;;;;5095981;28;20032;-78
2023/06/07 01:08:20;;;;;;;4.50;2.33;;;18.10;92.20;;;;;;5095640;28;20024;-78
2023/06/07 01:10:46;;;;;;;4.35;2.42;;;18.10;92.40;;;;;;5095339;28;20028;-78
2023/06/07 01:13:13;;;;;;;2.95;2.45;;;18.10;92.60;;;;;;5094043;28;20028;-77
2023/06/07 01:15:40;;;;;;;4.25;2.42;;;18.10;92.70;;;;;;5095106;28;20095;-77
2023/06/07 01:18:09;;;;;;;5.13;2.38;;;18.00;92.90;;;;;;5095201;28;20035;-76
2023/06/07 01:20:37;;;;;;;3.47;2.58;;;18.00;93.10;;;;;;5094611;28;20050;-76
2023/06/07 01:23:07;;;;;;;3.63;2.30;;;17.90;93.60;;;;;;5093892;28;20024;-76
2023/06/07 01:25:33;;;;;;;3.50;2.28;;;17.90;93.70;;;;;;5094588;28;20039;-77
2023/06/07 01:28:00;;;;;;;3.83;2.63;;;17.90;93.70;;;;;;5094121;28;20024;-77
2023/06/07 01:30:31;;;;;;;2.85;2.20;;;17.90;93.80;;;;;;5094306;28;20059;-78
2023/06/07 01:32:58;;;;;;;3.38;2.10;;;17.90;94.10;;;;;;5094456;28;20031;-78
2023/06/07 01:35:24;;;;;;;3.33;2.50;;;17.80;94.00;;;;;;5094637;28;20040;-77
2023/06/07 01:37:51;;;;;;;6.97;2.35;;;17.80;94.10;;;;;;5094402;28;20024;-78
2023/06/07 01:40:18;;;;;;;4.75;2.50;;;17.80;94.30;;;;;;5094729;28;20506;-78
2023/06/07 01:42:44;;;;;;;5.68;2.50;;;17.60;94.70;;;;;;5094631;28;20020;-78
2023/06/07 01:45:10;;;;;;;4.70;2.80;;;17.60;94.90;;;;;;5094835;28;20039;-78
2023/06/07 01:47:37;;;;;;;4.65;2.10;;;17.60;95.10;;;;;;5104022;28;20028;-78
2023/06/07 01:50:04;;;;;;;3.53;2.30;;;17.50;95.30;;;;;;5094850;28;20024;-77
2023/06/07 01:52:29;;;;;;;3.40;2.38;;;17.50;95.40;;;;;;5095247;28;20059;-78
2023/06/07 01:54:56;;;;;;;2.85;2.30;;;17.50;95.70;;;;;;5098108;28;20066;-78
2023/06/07 01:57:50;;;;;;;2.97;2.30;;;17.50;95.80;;;;;;5114026;28;20024;-77
2023/06/07 02:00:24;;;;;;;4.00;2.28;;;17.50;95.90;;;;;;5100229;28;20028;-78
2023/06/07 02:02:58;;;;;;;3.63;2.50;;;17.40;96.10;;;;;;5096563;28;20034;-78
2023/06/07 02:05:31;;;;;;;5.60;2.60;;;17.40;96.20;;;;;;5099079;28;20035;-78
2023/06/07 02:07:59;;;;;;;2.63;2.42;;;17.30;96.40;;;;;;5094689;28;20028;-78
2023/06/07 02:10:30;;;;;;;4.35;2.22;;;17.30;96.40;;;;;;5092973;28;20154;-78
2023/06/07 02:12:57;;;;;;;;;;;17.30;96.50;;;;;;5093873;28;20028;-77
2023/06/07 02:15:23;;;;;;;5.88;2.70;;;17.30;96.70;;;;;;5093013;28;20201;-76
2023/06/07 02:18:01;;;;;;;6.43;2.80;;;17.20;96.80;;;;;;5093456;28;20031;-76
2023/06/07 02:20:30;;;;;;;4.18;2.35;;;17.10;97.00;;;;;;5092813;28;20031;-76
2023/06/07 02:22:57;;;;;;;4.80;2.45;;;17.10;97.00;;;;;;5094550;28;20115;-76
2023/06/07 02:25:23;;;;;;;4.60;2.60;;;17.20;97.00;;;;;;5093570;28;20028;-76
2023/06/07 02:27:49;;;;;;;7.40;2.53;;;17.20;97.10;;;;;;5093225;28;20028;-76
2023/06/07 02:30:15;;;;;;;4.72;3.05;;;17.10;97.30;;;;;;5093721;28;20369;-76
2023/06/07 02:32:45;;;;;;;2.60;2.30;;;17.10;97.50;;;;;;5096414;28;20024;-76
2023/06/07 02:35:10;;;;;;;4.90;2.65;;;17.10;97.60;;;;;;5093364;28;20027;-76
2023/06/07 02:37:36;;;;;;;2.60;2.20;;;17.10;97.60;;;;;;5100742;28;20479;-77
2023/06/07 02:40:04;;;;;;;3.53;2.60;;;17.10;97.70;;;;;;5113269;28;20115;-76
2023/06/07 02:42:30;;;;;;;2.83;2.25;;;17.00;98.00;;;;;;5105681;28;20066;-77
2023/06/07 02:44:56;;;;;;;3.92;3.00;;;17.00;98.00;;;;;;5093122;28;20036;-77
2023/06/07 02:47:21;;;;;;;4.63;2.90;;;17.00;98.30;;;;;;5092618;28;20024;-77
2023/06/07 02:49:47;;;;;;;4.10;2.63;;;16.90;98.40;;;;;;5093950;28;20050;-78
2023/06/07 02:52:12;;;;;;;3.28;2.33;;;16.90;98.70;;;;;;5092470;28;20036;-77
2023/06/07 02:54:39;;;;;;;3.00;2.33;;;16.80;98.90;;;;;;5093817;28;20077;-77
2023/06/07 02:57:07;;;;;;;2.97;2.30;;;16.80;99.00;;;;;;5092751;28;20020;-77
2023/06/07 02:59:33;;;;;;;3.53;2.55;;;16.80;99.10;;;;;;5094090;28;20021;-76
2023/06/07 03:01:59;;;;;;;4.25;2.85;;;16.80;99.10;;;;;;5092486;28;20388;-76
2023/06/07 03:04:26;;;;;;;5.22;2.60;;;16.70;99.30;;;;;;5093277;28;20067;-77
2023/06/07 03:06:52;;;;;;;2.90;2.40;;;16.70;99.40;;;;;;5092924;28;20464;-77
2023/06/07 03:09:18;;;;;;;3.85;2.63;;;16.70;99.50;;;;;;5094947;28;20073;-76
2023/06/07 03:11:44;;;;;;;3.50;2.53;;;16.70;99.50;;;;;;5095715;28;20024;-76
2023/06/07 03:14:10;;;;;;;4.20;2.70;;;16.70;99.70;;;;;;5093299;28;20439;-76
2023/06/07 03:16:36;;;;;;;3.25;2.28;;;16.60;99.80;;;;;;5093502;28;20028;-75
2023/06/07 03:19:01;;;;;;;4.18;2.50;;;16.60;99.90;;;;;;5092323;28;20020;-76
2023/06/07 03:21:28;;;;;;;3.90;2.50;;;16.60;99.90;;;;;;5092756;28;20032;-75
2023/06/07 03:23:53;;;;;;;5.88;2.92;;;16.60;99.90;;;;;;5094994;28;20036;-75
2023/06/07 03:26:19;;;;;;;5.05;2.88;;;16.50;99.90;;;;;;5097156;28;20386;-75
2023/06/07 03:28:45;;;;;;;4.65;2.63;;;16.60;99.90;;;;;;5097421;28;20028;-75
2023/06/07 03:31:11;;;;;;;4.28;2.50;;;16.50;99.90;;;;;;5095671;28;20020;-75
2023/06/07 03:33:36;;;;;;;6.43;2.47;;;16.50;99.90;;;;;;5097291;28;20028;-76
2023/06/07 03:36:07;;;;;;;4.43;2.80;;;16.60;99.90;;;;;;5096340;28;20028;-77
2023/06/07 03:38:33;;;;;;;5.28;2.42;;;16.50;99.90;;;;;;5097389;28;20016;-75
2023/06/07 03:40:58;;;;;;;4.07;2.58;;;16.50;99.90;;;;;;5095856;28;20054;-76
2023/06/07 03:43:24;;;;;;;2.65;2.30;;;16.50;99.90;;;;;;5096705;28;20028;-75
2023/06/07 03:45:50;;;;;;;3.42;2.30;;;16.50;99.90;;;;;;5096022;28;20085;-77
2023/06/07 03:48:16;;;;;;;3.25;2.45;;;16.50;99.90;;;;;;5095650;28;20028;-75
2023/06/07 03:50:41;;;;;;;3.58;2.17;;;16.50;99.90;;;;;;5096223;28;20073;-76
2023/06/07 03:53:07;;;;;;;4.75;2.80;;;16.50;99.90;;;;;;5096020;28;20032;-76
2023/06/07 03:55:33;;;;;;;5.68;2.60;;;16.50;99.90;;;;;;5096670;28;20028;-76
2023/06/07 03:57:59;;;;;;;3.33;2.28;;;16.50;99.90;;;;;;5097280;28;20445;-76
2023/06/07 04:00:27;;;;;;;8.88;2.65;;;16.50;99.90;;;;;;5096472;28;20035;-76
2023/06/07 04:02:53;;;;;;;3.30;2.47;;;16.40;99.90;;;;;;5096313;28;20020;-76
2023/06/07 04:05:19;;;;;;;4.47;2.50;;;16.40;99.90;;;;;;5096431;28;20039;-76
2023/06/07 04:07:47;;;;;;;3.60;2.10;;;16.40;99.90;;;;;;5095811;28;20024;-76
2023/06/07 04:10:13;;;;;;;2.70;2.35;;;16.40;99.90;;;;;;5096424;28;20028;-75
2023/06/07 04:12:39;;;;;;;5.60;2.60;;;16.40;99.90;;;;;;5096766;28;20020;-76
2023/06/07 04:15:05;;;;;;;4.70;2.28;;;16.40;99.90;;;;;;5096776;28;20032;-76
2023/06/07 04:17:31;;;;;;;3.33;2.55;;;16.50;99.90;;;;;;5095044;28;20053;-76
2023/06/07 04:19:56;;;;;;;2.20;2.00;;;16.40;99.90;;;;;;5103534;28;20133;-75
2023/06/07 04:22:23;;;;;;;2.83;2.30;;;16.40;99.90;;;;;;5094681;28;20070;-75
2023/06/07 04:24:49;;;;;;;3.22;2.60;;;16.50;99.90;;;;;;5095406;28;20032;-76
2023/06/07 04:27:18;;;;;;;3.50;2.50;;;16.50;99.90;;;;;;5108945;28;20539;-75
2023/06/07 04:29:48;;;;;;;2.53;2.00;;;16.50;99.90;;;;;;5115933;28;20024;-76
2023/06/07 04:32:18;;;;;;;3.78;2.50;;;16.40;99.90;;;;;;5115393;28;20046;-76
2023/06/07 04:34:45;;;;;;;5.47;2.28;;;16.40;99.90;;;;;;5116565;28;20475;-76
2023/06/07 04:37:12;;;;;;;3.40;2.20;;;16.30;99.90;;;;;;5115318;28;20020;-77
2023/06/07 04:39:40;;;;;;;3.78;2.45;;;16.30;99.90;;;;;;5115749;28;20034;-76
2023/06/07 04:42:07;;;;;;;2.42;2.17;;;16.40;99.90;;;;;;5115412;28;20077;-76
2023/06/07 04:44:33;;;;;;;3.67;2.30;;;16.40;99.90;;;;;;5115225;28;20059;-77
2023/06/07 04:47:01;;;;;;;7.70;2.92;;;16.50;99.90;;;;;;5118337;28;20039;-76
2023/06/07 04:49:27;;;;;;;4.38;2.38;;;16.50;99.90;;;;;;5117489;28;20032;-76
2023/06/07 04:51:53;;;;;;;3.78;2.30;;;16.50;99.90;;;;;;5118095;28;20136;-76
2023/06/07 04:54:19;;;;;;;3.28;2.40;;;16.60;99.90;;;;;;5118598;28;20036;-75
2023/06/07 04:56:45;;;;;;;4.78;2.28;;;16.60;99.90;;;;;;5118892;28;20024;-75
2023/06/07 04:59:11;;;;;;;3.10;2.47;;;16.60;99.90;;;;;;5118770;28;20035;-76
2023/06/07 05:01:37;;;;;;;2.90;2.30;;;16.60;99.90;;;;;;5117766;28;20528;-75
2023/06/07 05:04:03;;;;;;;3.15;2.65;;;16.60;99.90;;;;;;5114340;28;20035;-75
2023/06/07 05:06:30;;;;;;;3.90;2.28;;;16.70;99.90;;;;;;5115001;28;20031;-75
2023/06/07 05:08:56;;;;;;;2.28;2.03;;;16.70;99.90;;;;;;5115671;28;20031;-75
2023/06/07 05:11:22;;;;;;;2.90;2.15;;;16.80;99.90;;;;;;5113724;28;20019;-75
2023/06/07 05:13:47;;;;;;;2.42;2.15;;;16.80;99.90;;;;;;5117302;28;20039;-74
2023/06/07 05:16:16;;;;;;;3.03;2.22;;;16.90;99.90;;;;;;5117743;28;20028;-75
2023/06/07 05:18:49;;;;;;;3.42;2.25;;;16.90;99.90;;;;;;5117553;28;20441;-75
2023/06/07 05:21:15;;;;;;;3.85;2.30;;;17.00;99.90;;;;;;5119119;28;20023;-75
2023/06/07 05:23:41;;;;;;;3.58;2.25;;;17.00;99.90;;;;;;5114084;28;20032;-75
2023/06/07 05:26:08;;;;;;;4.35;2.30;;;17.00;99.90;;;;;;5115708;28;20024;-75
2023/06/07 05:28:34;;;;;;;3.15;2.28;;;17.00;99.90;;;;;;5114115;28;20035;-76
2023/06/07 05:31:00;;;;;;;3.38;2.22;;;17.10;99.90;;;;;;5114460;28;20023;-76
2023/06/07 05:33:28;;;;;;;3.67;2.20;;;17.10;99.90;;;;;;5114562;28;20380;-77
2023/06/07 05:35:55;;;;;;;2.83;2.25;;;17.10;99.90;;;;;;5114833;28;20050;-75
2023/06/07 05:38:20;;;;;;;4.13;2.50;;;17.10;99.90;;;;;;5113533;28;20034;-75
2023/06/07 05:40:46;;;;;;;3.33;2.40;;;17.20;99.90;;;;;;5113744;28;20048;-76
2023/06/07 05:43:12;;;;;;;4.30;2.50;;;17.20;99.90;;;;;;5115058;28;20067;-76
2023/06/07 05:45:37;;;;;;;3.47;2.28;;;17.20;99.90;;;;;;5112901;28;20040;-76
2023/06/07 05:48:03;;;;;;;3.38;2.30;;;17.20;99.90;;;;;;5113963;28;20024;-78
2023/06/07 05:50:29;;;;;;;4.63;2.30;;;17.20;99.90;;;;;;5115482;28;20023;-77
2023/06/07 05:52:59;;;;;;;3.75;2.28;;;17.20;99.90;;;;;;5114895;28;20388;-77
2023/06/07 05:55:26;;;;;;;2.72;2.25;;;17.30;99.90;;;;;;5113347;28;20027;-77
2023/06/07 05:57:53;;;;;;;2.55;2.17;;;17.40;99.90;;;;;;5113861;28;20353;-77
2023/06/07 06:00:19;;;;;;;4.00;2.42;;;17.40;99.90;;;;;;5114413;28;20016;-76
2023/06/07 06:02:47;;;;;;;3.05;2.40;;;17.50;99.90;;;;;;5114289;28;20038;-76
2023/06/07 06:05:15;;;;;;;5.35;2.67;;;17.60;99.90;;;;;;5104577;27;20028;-76
2023/06/07 06:07:41;;;;;;;3.35;2.47;;;17.60;99.90;;;;;;5117528;27;20027;-76
2023/06/07 06:10:07;;;;;;;5.43;2.17;;;17.60;99.90;;;;;;5120962;27;20460;-78
2023/06/07 06:12:33;;;;;;;2.70;2.30;;;17.70;99.90;;;;;;5113569;28;20024;-78
2023/06/07 06:15:00;;;;;;;3.08;2.40;;;17.70;99.90;;;;;;5117050;27;20028;-77
2023/06/07 06:17:26;;;;;;;2.88;1.98;;;17.80;99.90;;;;;;5127998;27;20528;-77
2023/06/07 06:19:51;;;;;;;3.05;2.45;;;17.80;99.90;;;;;;5123887;27;20118;-77
2023/06/07 06:22:17;;;;;;;5.00;2.80;;;17.90;99.90;;;;;;5120538;27;20384;-77
2023/06/07 06:24:43;;;;;;;5.20;2.75;;;18.00;99.90;;;;;;5114664;27;20114;-78
2023/06/07 06:27:09;;;;;;;3.97;2.33;;;18.00;99.90;;;;;;5131607;27;20098;-78
2023/06/07 06:29:35;;;;;;;3.45;2.30;;;18.10;99.90;;;;;;5122629;27;20023;-79
2023/06/07 06:32:00;;;;;;;3.30;2.30;;;18.10;99.90;;;;;;5130346;27;20425;-78
2023/06/07 06:34:28;;;;;;;4.88;2.50;;;18.20;99.90;;;;;;5118502;27;20027;-77
2023/06/07 06:36:53;;;;;;;4.63;2.30;;;18.20;99.90;;;;;;5114271;27;20027;-77
2023/06/07 06:39:19;;;;;;;3.92;2.42;;;18.20;99.90;;;;;;5127301;27;20433;-77
2023/06/07 06:41:45;;;;;;;4.63;2.50;;;18.30;99.90;;;;;;5121065;27;20065;-78
2023/06/07 06:44:11;;;;;;;3.33;2.30;;;18.30;99.90;;;;;;5121354;27;20059;-78
2023/06/07 06:46:36;;;;;;;3.65;2.60;;;18.30;99.90;;;;;;5114896;27;20035;-77
2023/06/07 06:49:02;;;;;;;4.28;2.80;;;18.40;99.90;;;;;;5129435;27;20016;-77
2023/06/07 06:51:28;;;;;;;2.88;2.30;;;18.50;99.90;;;;;;5119450;27;20033;-78
2023/06/07 06:53:53;;;;;;;4.70;2.50;;;18.50;99.90;;;;;;5122672;27;20101;-78
2023/06/07 06:56:20;;;;;;;2.70;2.28;;;18.50;99.90;;;;;;5112108;27;20035;-78
2023/06/07 06:58:46;;;;;;;4.28;2.53;;;18.60;99.90;;;;;;5112681;28;20129;-80
2023/06/07 07:01:14;;;;;;;4.50;2.13;;;18.60;99.90;;;;;;5109369;27;20020;-80
2023/06/07 07:03:40;;;;;;;3.05;2.30;;;18.60;99.90;;;;;;5104608;28;20464;-79
2023/06/07 07:06:07;;;;;;;4.95;2.22;;;18.60;99.90;;;;;;5122066;27;20075;-83
2023/06/07 07:08:34;;;;;;;3.92;2.42;;;18.70;99.90;;;;;;5132313;27;20106;-84
2023/06/07 07:11:00;;;;;;;4.05;2.20;;;18.70;99.90;;;;;;5130096;27;20034;-83
2023/06/07 07:13:25;;;;;;;3.97;2.45;;;18.80;99.90;;;;;;5114336;27;20020;-86
2023/06/07 07:15:51;;;;;;;2.75;2.30;;;18.80;99.90;;;;;;5113505;28;20050;-85
2023/06/07 07:18:17;;;;;;;4.53;2.28;;;18.80;99.90;;;;;;5124754;27;20031;-89
2023/06/07 07:20:42;;;;;;;3.67;2.50;;;18.90;99.90;;;;;;5125068;28;20080;-88
2023/06/07 07:23:08;;;;;;;2.95;2.35;;;19.00;99.90;;;;;;5122782;28;20058;-90
2023/06/07 07:25:34;;;;;;;5.30;2.72;;;19.00;99.90;;;;;;5116027;28;20038;-87
2023/06/07 07:28:00;;;;;;;4.68;2.72;;;19.10;99.90;;;;;;5123781;28;20444;-85
2023/06/07 07:30:25;;;;;;;3.75;2.50;;;19.10;99.90;;;;;;5112797;28;20032;-79
2023/06/07 07:32:53;;;;;;;2.42;1.88;;;19.20;99.90;;;;;;5121782;28;20098;-82
2023/06/07 07:35:18;;;;;;;3.28;2.00;;;19.20;99.90;;;;;;5126938;28;20042;-83
2023/06/07 07:37:44;;;;;;;3.42;2.40;;;19.20;99.90;;;;;;5120862;28;20027;-81
2023/06/07 07:40:12;;;;;;;2.33;2.10;;;19.30;99.90;;;;;;5125233;28;20407;-81
2023/06/07 07:42:38;;;;;;;4.15;2.13;;;19.30;99.90;;;;;;5124165;28;20023;-82
2023/06/07 07:45:05;;;;;;;6.40;2.15;;;19.30;99.90;;;;;;5122039;28;20027;-84
2023/06/07 07:47:31;;;;;;;4.07;2.20;;;19.30;99.90;;;;;;5125236;28;20133;-83
2023/06/07 07:49:56;;;;;;;2.47;1.90;;;19.40;99.90;;;;;;5123019;28;20067;-82
2023/06/07 07:52:22;;;;;;;2.13;1.90;;;19.50;99.80;;;;;;5117649;28;20023;-82
2023/06/07 07:54:48;;;;;;;2.25;2.05;;;19.40;99.80;;;;;;5124563;28;20038;-83
2023/06/07 07:57:13;;;;;;;10.52;2.13;;;19.50;99.70;;;;;;5108506;28;20062;-81
2023/06/07 07:59:39;;;;;;;4.10;1.73;;;19.50;99.20;;;;;;5107651;28;20202;-81
2023/06/07 08:02:05;;;;;;;2.10;1.90;;;19.50;99.20;;;;;;5119437;28;20039;-86
2023/06/07 08:04:30;;;;;;;3.22;1.67;;;19.60;99.10;;;;;;5115815;28;20353;-83
2023/06/07 08:06:56;;;;;;;2.22;1.83;;;19.60;99.20;;;;;;5113465;28;20073;-82
2023/06/07 08:09:22;;;;;;;3.55;1.92;;;19.60;99.30;;;;;;5124640;27;20164;-85
2023/06/07 08:11:48;;;;;;;4.22;1.73;;;19.70;99.10;;;;;;5125974;27;20062;-84
2023/06/07 08:14:18;;;;;;;3.53;1.88;;;19.70;98.80;;;;;;5120557;27;20035;-80
2023/06/07 08:16:44;;;;;;;4.45;1.83;;;19.70;98.50;;;;;;5123239;27;20028;-81
2023/06/07 08:19:10;;;;;;;5.43;1.90;;;19.80;98.40;;;;;;5122944;27;20031;-81
2023/06/07 08:21:36;;;;;;;2.78;1.83;;;19.80;98.50;;;;;;5127739;27;20031;-83
2023/06/07 08:24:02;;;;;;;2.60;1.50;;;19.80;98.00;;;;;;5124423;27;20500;-90
2023/06/07 08:26:28;;;;;;;3.78;1.77;;;19.90;98.10;;;;;;5115521;28;20027;-80
2023/06/07 08:28:53;;;;;;;1.70;1.60;;;20.00;97.90;;;;;;5115769;28;20372;-82
2023/06/07 08:31:19;;;;;;;1.50;1.30;;;20.00;98.00;;;;;;5104856;27;20492;-81
2023/06/07 08:33:45;;;;;;;2.88;1.40;;;20.00;98.00;;;;;;5098106;28;20024;-79
2023/06/07 08:36:10;;;;;;;1.40;1.30;;;20.00;98.10;;;;;;5136518;27;20535;-79
2023/06/07 08:38:41;;;;;;;3.08;1.70;;;20.10;97.50;;;;;;5129713;27;20507;-77
2023/06/07 08:41:07;;;;;;;1.57;1.40;;;20.10;97.70;;;;;;5127918;27;20051;-77
2023/06/07 08:43:33;;;;;;;1.77;1.60;;;20.10;97.60;;;;;;5119994;27;20271;-77
2023/06/07 08:46:05;;;;;;;1.33;1.17;;;20.20;97.40;;;;;;5131923;27;20031;-77
2023/06/07 08:48:33;;;;;;;5.50;1.40;;;20.20;96.80;;;;;;5122155;27;20113;-77
2023/06/07 08:51:01;;;;;;;1.20;1.10;;;20.30;97.00;;;;;;5124612;27;20036;-77
2023/06/07 08:53:33;;;;;;;2.25;1.13;;;20.30;96.70;;;;;;5122467;27;20024;-77
2023/06/07 08:56:01;;;;;;;3.53;1.38;;;20.40;96.70;;;;;;5131923;27;20176;-77
2023/06/07 08:58:27;;;;;;;1.45;1.15;;;20.40;96.60;;;;;;5120492;27;20027;-78
2023/06/07 09:00:53;;;;;;;2.67;1.38;;;20.40;96.70;;;;;;5128485;27;20074;-77
2023/06/07 09:03:19;;;;;;;1.52;1.20;;;20.50;96.50;;;;;;5123712;27;20489;-77
2023/06/07 09:05:45;;;;;;;1.20;1.10;;;20.50;96.00;;;;;;5130951;27;20092;-77
2023/06/07 09:08:11;;;;;;;1.48;1.30;;;20.50;96.10;;;;;;5102547;27;20023;-78
2023/06/07 09:10:37;;;;;;;2.22;1.17;;;20.50;96.00;;;;;;5127124;27;20491;-76
2023/06/07 09:13:04;;;;;;;3.70;1.23;;;20.50;95.90;;;;;;5126545;27;20068;-77
2023/06/07 09:15:32;;;;;;;1.23;1.02;;;20.60;96.00;;;;;;5120190;27;20507;-77
2023/06/07 09:17:59;;;;;;;1.30;0.95;;;20.70;95.60;;;;;;5131281;27;20476;-77
2023/06/07 09:20:33;;;;;;;2.25;0.98;;;20.80;94.80;;;;;;5120451;27;20045;-77
2023/06/07 09:23:01;;;;;;;1.48;1.10;;;20.90;94.80;;;;;;5134878;27;20117;-77
2023/06/07 09:25:27;;;;;;;1.48;1.27;;;20.90;94.90;;;;;;5134855;27;20365;-76
2023/06/07 09:27:54;;;;;;;1.20;1.10;;;20.90;94.80;;;;;;5118164;27;20041;-77
2023/06/07 09:30:21;;;;;;;1.42;1.10;;;20.90;94.70;;;;;;5134450;27;20042;-77
2023/06/07 09:32:46;;;;;;;1.23;0.77;;;20.90;95.10;;;;;;5134622;27;20110;-77
2023/06/07 09:35:14;;;;;;;2.00;0.95;;;21.10;94.90;;;;;;5133148;27;20110;-77
2023/06/07 09:37:59;;;;;;;1.30;0.90;;;21.20;94.50;;;;;;5117698;27;20031;-78
2023/06/07 09:40:24;;;;;;;1.13;0.85;;;21.20;93.70;;;;;;5134334;27;20367;-77
2023/06/07 09:43:00;;;;;;;1.15;1.05;;;21.30;94.10;;;;;;5118435;27;20110;-78
2023/06/07 09:45:27;;;;;;;3.50;1.17;;;21.50;93.80;;;;;;5126771;27;20034;-79
2023/06/07 09:48:07;;;;;;;3.45;1.40;;;21.70;93.70;;;;;;5134974;27;20114;-79
2023/06/07 09:50:33;;;;;;;13.27;2.80;;;21.90;93.40;;;;;;5115924;27;20094;-79
2023/06/07 09:53:01;;;;;;;4.65;1.30;;;22.00;93.10;;;;;;5113517;27;20031;-79
2023/06/07 09:55:28;;;;;;;2.78;1.20;;;22.10;92.90;;;;;;5117580;27;20048;-84
2023/06/07 09:57:55;;;;;;;6.75;1.15;;;22.10;92.70;;;;;;5118071;27;20114;-83
2023/06/07 10:00:21;;;;;;;3.78;1.00;;;22.20;92.90;;;;;;5134260;27;20058;-82
2023/06/07 10:02:49;;;;;;;3.35;1.23;;;22.40;92.60;;;;;;5134223;27;20030;-84
2023/06/07 10:05:16;;;;;;;1.48;1.00;;;22.50;92.10;;;;;;5131517;27;20460;-89
2023/06/07 10:07:46;;;;;;;1.13;1.02;;;22.50;92.50;;;;;;5131624;27;20076;-85
2023/06/07 10:10:14;;;;;;;1.65;1.20;;;22.50;92.50;;;;;;5102560;27;20496;-83
2023/06/07 10:12:41;;;;;;;1.40;1.27;;;22.40;91.80;;;;;;5114458;28;20024;-86
2023/06/07 10:15:20;;;;;;;1.40;0.90;;;22.20;91.90;;;;;;5115408;27;20031;-84
2023/06/07 10:18:00;;;;;;;1.50;1.10;;;22.30;91.90;;;;;;5133351;27;20107;-83
2023/06/07 10:20:34;;;;;;;1.40;1.25;;;22.20;91.60;;;;;;5127074;27;20531;-82
2023/06/07 10:23:10;;;;;;;1.75;1.33;;;22.20;91.60;;;;;;5113591;28;20031;-79
2023/06/07 10:25:52;;;;;;;1.98;1.15;;;22.20;91.70;;;;;;5129795;27;20122;-81
2023/06/07 10:28:32;;;;;;;1.75;1.48;;;22.40;92.30;;;;;;5112259;27;20027;-78
2023/06/07 10:31:03;;;;;;;1.20;1.10;;;22.60;91.90;;;;;;5121100;27;20024;-87
2023/06/07 10:33:30;;;;;;;1.40;1.25;;;22.90;91.20;;;;;;5130090;27;20272;-78
2023/06/07 10:35:57;;;;;;;2.08;1.30;;;23.20;90.00;;;;;;5101507;27;20122;-85
2023/06/07 10:38:24;;;;;;;1.85;1.17;;;23.20;90.10;;;;;;5129342;27;20484;-83
2023/06/07 10:40:51;;;;;;;1.38;1.10;;;23.30;88.20;;;;;;5114471;27;20039;-81
2023/06/07 10:43:18;;;;;;;2.78;1.48;;;23.30;87.60;;;;;;5119393;27;20023;-80
2023/06/07 10:45:43;;;;;;;1.70;1.05;;;23.40;88.10;;;;;;5117148;27;20175;-80
2023/06/07 10:48:32;;;;;;;3.10;1.35;;;23.40;88.70;;;;;;5124588;27;20129;-82
2023/06/07 10:50:58;;;;;;;3.17;0.98;;;23.50;87.30;;;;;;5119736;27;20023;-81
2023/06/07 10:53:24;;;;;;;0.95;0.88;;;23.60;87.10;;;;;;5124095;27;20043;-81
2023/06/07 10:55:50;;;;;;;1.70;1.20;;;23.70;84.40;;;;;;5115397;27;20371;-84
2023/06/07 10:58:29;;;;;;;1.88;1.33;;;23.60;83.80;;;;;;5114105;27;20028;-84
2023/06/07 11:00:56;;;;;;;3.20;1.50;;;23.50;84.00;;;;;;5115442;27;20476;-85
2023/06/07 11:03:25;;;;;;;1.88;1.35;;;23.50;85.70;;;;;;5114847;27;20046;-80
2023/06/07 11:05:53;;;;;;;3.78;1.40;;;23.50;84.60;;;;;;5114745;27;20171;-76
2023/06/07 11:08:24;;;;;;;1.20;1.10;;;23.40;84.50;;;;;;5113509;28;20026;-82
2023/06/07 11:10:50;;;;;;;1.52;1.42;;;23.50;84.70;;;;;;5114344;28;20116;-76
2023/06/07 11:13:15;;;;;;;1.88;1.10;;;23.70;84.50;;;;;;5115111;28;20082;-77
2023/06/07 11:15:41;;;;;;;1.20;1.10;;;23.90;84.00;;;;;;5126551;27;20031;-92
2023/06/07 11:18:08;;;;;;;1.40;1.30;;;24.00;83.50;;;;;;5139272;27;20027;-92
2023/06/07 11:20:37;;;;;;;1.48;1.30;;;24.20;83.00;;;;;;5132098;28;20030;-92
2023/06/07 11:23:31;;;;;;;2.28;1.30;;;24.30;82.90;;;;;;5119438;28;20031;-94
2023/06/07 11:26:05;;;;;;;2.35;1.58;;;24.40;82.50;;;;;;5128165;28;20558;-89
2023/06/07 11:28:32;;;;;;;1.45;1.35;;;24.30;81.80;;;;;;5130940;28;20402;-91
2023/06/07 11:30:59;;;;;;;1.92;1.75;;;24.20;81.20;;;;;;5118721;28;20020;-85
2023/06/07 11:33:25;;;;;;;3.20;2.08;;;24.10;82.40;;;;;;5127281;28;20036;-87
2023/06/07 11:35:52;;;;;;;2.80;1.95;;;24.00;83.00;;;;;;5126591;28;20772;-86
2023/06/07 11:38:19;;;;;;;2.45;2.20;;;23.90;83.50;;;;;;5114003;28;20035;-87
2023/06/07 11:40:45;;;;;;;3.53;1.90;;;23.80;83.30;;;;;;5113967;28;20051;-87
2023/06/07 11:43:12;;;;;;;2.22;2.03;;;23.80;84.10;;;;;;5114724;28;20028;-87
2023/06/07 11:45:42;;;;;;;2.67;1.88;;;23.80;83.10;;;;;;5118596;27;20544;-83
2023/06/07 11:48:08;;;;;;;3.35;2.17;;;23.80;82.80;;;;;;5118100;27;20030;-85
2023/06/07 11:50:43;;;;;;;2.78;1.92;;;23.80;83.30;;;;;;5120847;27;20034;-88
2023/06/07 11:53:09;;;;;;;4.63;2.00;;;23.90;84.60;;;;;;5126376;27;20031;-90
2023/06/07 11:55:35;;;;;;;2.08;1.88;;;23.90;84.50;;;;;;5121862;27;20034;-90
2023/06/07 11:58:02;;;;;;;2.38;2.08;;;23.90;83.60;;;;;;5131043;27;20024;-91
2023/06/07 12:00:31;;;;;;;2.33;2.08;;;23.90;83.30;;;;;;5135299;27;20090;-82
2023/06/07 12:02:57;;;;;;;2.10;1.90;;;24.10;83.90;;;;;;5117763;27;20016;-89
2023/06/07 12:05:30;;;;;;;2.58;1.90;;;24.10;83.40;;;;;;5114434;27;20036;-87
2023/06/07 12:08:04;;;;;;;1.90;1.70;;;24.20;83.40;;;;;;5116413;27;20058;-87
2023/06/07 12:10:36;;;;;;;3.17;2.25;;;24.30;82.50;;;;;;5123503;27;20526;-79
2023/06/07 12:13:21;;;;;;;2.50;2.20;;;24.50;81.70;;;;;;5117374;27;20024;-85
2023/06/07 12:15:49;;;;;;;2.78;2.03;;;24.70;80.50;;;;;;5113110;27;20127;-82
2023/06/07 12:18:30;;;;;;;6.45;2.60;;;24.70;80.20;;;;;;5119489;27;20454;-82
2023/06/07 12:21:11;;;;;;;2.40;2.20;;;24.60;79.50;;;;;;5113074;27;20023;-80
2023/06/07 12:23:44;;;;;;;2.65;2.33;;;24.40;79.40;;;;;;5121125;27;20088;-82
2023/06/07 12:26:15;;;;;;;2.75;2.20;;;24.40;79.70;;;;;;5132232;27;20038;-83
2023/06/07 12:28:42;;;;;;;2.30;2.10;;;24.50;79.60;;;;;;5115713;28;20032;-82
2023/06/07 12:31:22;;;;;;;4.82;2.78;;;24.70;80.40;;;;;;5132627;27;20066;-82
2023/06/07 12:33:58;;;;;;;4.35;2.15;;;24.90;79.40;;;;;;5119002;27;20023;-82
2023/06/07 12:36:27;;;;;;;2.95;1.90;;;25.10;80.60;;;;;;5131562;27;20065;-82
2023/06/07 12:38:54;;;;;;;2.30;2.10;;;25.30;79.80;;;;;;5126166;27;20035;-82
2023/06/07 12:41:23;;;;;;;3.03;2.17;;;25.30;80.40;;;;;;5136054;27;20120;-82
2023/06/07 12:43:49;;;;;;;2.15;1.95;;;25.40;80.40;;;;;;5118547;27;20023;-81
2023/06/07 12:46:15;;;;;;;2.33;2.00;;;25.50;79.50;;;;;;5131268;27;20061;-82
2023/06/07 12:48:43;;;;;;;2.80;2.40;;;25.50;78.50;;;;;;5123916;27;20126;-82
2023/06/07 12:51:09;;;;;;;1.98;1.80;;;25.60;77.20;;;;;;5125023;27;20072;-83